Lakefront, LA

9:35 AM CDT en Agosto 20, 2014 (GMT -0500)
Lakefront | Change Station
CLOSE
Current Station
Aeropuerto
Location: New Orleans Lakefront,
Altura: 10 ft
Estaciones meteorológicas cercanas

Alt 10 ft 30.05 °N, 90.03 °W | Updated 42 minutes ago

Haze
Bruma
85 ° F
Sensación térmica 94 ° F
N
0
Viento Variable Viento desde Norte

Hoy
Alta -- | Baja -- ° F
--% Posibilidad de precipitaciones
Ayer
Alta -- | Baja -- ° F
Precip. -- pul
6:30 AM 7:36 PM
Creciente menguante, 21% visible
Presión 30.05 pul
Visibilidad 6.0 Millas
Nubes Despejado
Índice de calor 94 ° F
Punto de rocío 76 ° F
Humedad 74%
Precipitaciones 0.00 pul
Espesor de la nieve No disponible.
UV 3 de una escala de 12
Polen 6.80 de una escala de 12
PM2.5 Moderada
Flu Activity No disponible.
METAR KNEW 201353Z AUTO 00000KT 6SM HZ CLR 29/24 A3007 RMK AO2 SLP176 T02940244 PWINO TSNO $

More Conditions Fewer Conditions

Presión 30.05 pul
Visibilidad 6.0 Millas
Nubes Despejado
Índice de calor 94 ° F
Punto de rocío 76 ° F
Humedad 74%
Precipitaciones 0.00 pul
Espesor de la nieve No disponible.
UV 3 de una escala de 12
Polen 6.80 de una escala de 12
PM2.5 Moderada
Flu Activity No disponible.
METAR KNEW 201353Z AUTO 00000KT 6SM HZ CLR 29/24 A3007 RMK AO2 SLP176 T02940244 PWINO TSNO $

More Conditions Fewer Conditions

10-Day Weather Forecast

Almanac

Astronomía

Aug. 20, 2014 Salida Puesta
Hora real 6:30 AM CDT 7:36 PM CDT
Crepúsculo civil 6:05 AM CDT 8:00 PM CDT
Crepúsculo náutico 5:35 AM CDT 8:30 PM CDT
Crepúsculo astronómico 5:05 AM CDT 9:00 PM CDT
Luna 2:18 AM CDT 4:13 PM CDT
Horas de luz 13h 55m
Horas de luz
13h 05m
Tomorrow will be 1m 38s shorter.
Creciente menguante, 21% of the Moon is Illuminated
Hoy
Creciente menguante
Ago 25
Nueva
Sep 2
Cuarto creciente
Sep 8
Luna llena
Sep 15
Cuarto menguante

Extremos de hoy

Máximos del estado Bajos del estado

Community

WunderPhotos

Upload Photos

1,745,654 ¡fotos cargadas!

Nearby

Calidad del aire

  Calidad del aire Índice AQ Contaminante
Ayer Moderada
PM2.5
Ayer Buena
OZONE
Real Moderada
PM2.5
Miércoles Moderada
PM2.5
Miércoles Buena
OZONE
Jueves Moderada
PM2.5
Jueves Buena
OZONE

Grosos de nieve

Estación Profundido Altura
No tenemos constancia de nieve nueva.

Actividad de terremotos

Ciudad Distance Mag. Tiempo y dato
No hay informes recientes de la actividad sísmica.
Magnitud mínima muestra es 2,5.

Temperaturas de aguas costeras

Lugar Temperatura
New Canal, LA 82.9 ° F
Shell Beach, LA 82.0 ° F
Bayou Gauche, LA 86.0 ° F

Estaciones meteorológicas cercanas